createdAt,value
2022-08-02T00:01:17.762Z,21.00
2022-08-02T00:06:20.921Z,20.90
2022-08-02T00:11:23.583Z,21.00
2022-08-02T00:16:38.374Z,21.10
2022-08-02T00:21:41.207Z,20.70
2022-08-02T00:26:43.678Z,20.80
2022-08-02T00:31:46.180Z,20.90
2022-08-02T00:36:48.817Z,20.90
2022-08-02T00:41:53.398Z,20.90
2022-08-02T00:46:55.839Z,21.00
2022-08-02T00:51:58.288Z,20.90
2022-08-02T00:57:00.731Z,20.80
2022-08-02T01:02:03.447Z,20.90
2022-08-02T01:07:12.640Z,21.00
2022-08-02T01:12:16.929Z,21.10
2022-08-02T01:17:38.682Z,21.00
2022-08-02T01:23:17.988Z,21.00
2022-08-02T01:28:26.253Z,21.00
2022-08-02T01:33:38.632Z,20.90
2022-08-02T01:38:46.817Z,21.10
2022-08-02T01:43:53.875Z,21.10
2022-08-02T01:48:58.184Z,21.10
2022-08-02T01:54:01.242Z,21.00
2022-08-02T01:59:08.501Z,21.00
2022-08-02T02:04:12.078Z,21.10
2022-08-02T02:09:15.890Z,21.10
2022-08-02T02:14:19.773Z,21.00
2022-08-02T02:19:23.974Z,21.00
2022-08-02T02:24:26.492Z,21.00
2022-08-02T02:29:31.638Z,20.90
2022-08-02T02:34:38.190Z,21.00
2022-08-02T02:39:43.316Z,21.10
2022-08-02T02:44:48.234Z,21.10
2022-08-02T02:49:52.670Z,21.00
2022-08-02T02:54:57.004Z,21.10
2022-08-02T02:59:59.957Z,20.60
2022-08-02T03:05:04.157Z,20.80
2022-08-02T03:10:07.973Z,20.90
2022-08-02T03:15:14.285Z,21.00
2022-08-02T03:20:18.535Z,21.10
2022-08-02T03:25:21.041Z,21.00
2022-08-02T03:30:27.046Z,21.10
2022-08-02T03:35:29.688Z,20.90
2022-08-02T03:40:32.666Z,20.90
2022-08-02T03:45:36.255Z,20.90
2022-08-02T03:50:40.084Z,20.90
2022-08-02T03:55:42.670Z,20.80
2022-08-02T04:00:45.409Z,20.70
2022-08-02T04:06:03.594Z,20.60
2022-08-02T04:11:25.976Z,20.60
2022-08-02T04:16:50.421Z,20.80
2022-08-02T04:21:55.950Z,21.00
2022-08-02T04:27:06.336Z,21.10
2022-08-02T04:32:10.400Z,20.90
2022-08-02T04:37:14.613Z,21.00
2022-08-02T04:42:24.654Z,21.00
2022-08-02T04:48:03.368Z,21.00
2022-08-02T04:52:49.683Z,21.10
2022-08-02T04:57:54.999Z,20.70
2022-08-02T05:02:58.061Z,20.40
2022-08-02T05:08:01.582Z,20.50
2022-08-02T05:13:05.507Z,20.40
2022-08-02T05:18:08.134Z,20.70
2022-08-02T05:23:10.856Z,20.70
2022-08-02T05:28:13.262Z,20.60
2022-08-02T05:33:15.749Z,20.80
2022-08-02T05:38:18.210Z,20.90
2022-08-02T05:43:28.692Z,20.90
2022-08-02T05:48:32.272Z,21.00
2022-08-02T05:53:37.515Z,21.10
2022-08-02T05:58:50.766Z,20.90
2022-08-02T06:03:57.647Z,20.80
2022-08-02T06:09:09.741Z,20.60
2022-08-02T06:14:13.284Z,20.70
2022-08-02T06:19:18.132Z,20.50
2022-08-02T06:24:21.031Z,20.30
2022-08-02T06:29:24.773Z,20.50
2022-08-02T06:34:27.220Z,20.50
2022-08-02T06:39:43.409Z,20.50
2022-08-02T06:44:48.766Z,20.70
2022-08-02T06:49:54.402Z,20.70
2022-08-02T06:54:59.188Z,20.70
2022-08-02T07:00:02.767Z,20.80
2022-08-02T07:05:06.153Z,20.70
2022-08-02T07:10:09.073Z,20.90
2022-08-02T07:15:12.713Z,20.90
2022-08-02T07:20:15.322Z,21.10
2022-08-02T07:25:18.350Z,21.10
2022-08-02T07:30:20.840Z,21.30
2022-08-02T07:35:23.393Z,21.40
2022-08-02T07:40:28.653Z,21.30
2022-08-02T07:45:35.998Z,21.40
2022-08-02T07:50:49.053Z,21.50
2022-08-02T07:55:51.950Z,21.50
2022-08-02T08:00:54.856Z,21.50
2022-08-02T08:05:57.653Z,21.50
2022-08-02T08:11:00.135Z,21.70
2022-08-02T08:16:02.655Z,21.70
2022-08-02T08:21:05.148Z,21.70
2022-08-02T08:26:10.055Z,21.70
2022-08-02T08:31:15.268Z,21.70
2022-08-02T08:36:17.709Z,21.90
2022-08-02T08:41:20.704Z,21.90
2022-08-02T08:46:31.951Z,22.00
2022-08-02T08:51:40.836Z,22.00
2022-08-02T08:56:44.930Z,21.90
2022-08-02T09:01:50.994Z,22.00
2022-08-02T09:06:53.889Z,22.00
2022-08-02T09:12:14.393Z,22.10
2022-08-02T09:17:17.866Z,22.10
2022-08-02T09:22:20.426Z,22.20
2022-08-02T09:27:23.280Z,22.20
2022-08-02T09:32:29.731Z,22.30
2022-08-02T09:37:32.209Z,22.60
2022-08-02T09:42:34.697Z,22.60
2022-08-02T09:47:37.506Z,22.80
2022-08-02T09:52:44.150Z,23.00
2022-08-02T09:57:50.969Z,22.90
2022-08-02T10:03:21.591Z,22.90
2022-08-02T10:08:26.742Z,22.80
2022-08-02T10:13:35.058Z,22.80
2022-08-02T10:18:39.874Z,22.80
2022-08-02T10:23:45.145Z,22.90
2022-08-02T10:28:49.695Z,22.90
2022-08-02T10:33:54.265Z,23.00
2022-08-02T10:38:58.791Z,23.20
2022-08-02T10:44:01.573Z,23.30
2022-08-02T10:49:23.929Z,23.10
2022-08-02T10:54:40.265Z,23.20
2022-08-02T10:59:43.069Z,23.40
2022-08-02T11:04:45.482Z,23.10
2022-08-02T11:09:50.858Z,23.10
2022-08-02T11:15:03.964Z,23.10
2022-08-02T11:20:13.295Z,23.60
2022-08-02T11:25:24.921Z,23.90
2022-08-02T11:30:27.878Z,24.10
2022-08-02T11:35:39.884Z,24.00
2022-08-02T11:40:43.176Z,24.30
2022-08-02T11:45:45.748Z,24.40
2022-08-02T11:50:48.217Z,24.00
2022-08-02T11:55:56.778Z,24.00
2022-08-02T12:00:59.281Z,24.00
2022-08-02T12:06:06.735Z,23.80
2022-08-02T12:11:22.371Z,24.10
2022-08-02T12:16:44.141Z,24.40
2022-08-02T12:21:47.514Z,24.40
2022-08-02T12:26:50.061Z,24.50
2022-08-02T12:31:56.859Z,24.70
2022-08-02T12:37:01.324Z,24.50
2022-08-02T12:42:05.545Z,24.20
2022-08-02T12:47:09.888Z,24.20
2022-08-02T12:52:22.838Z,24.50
2022-08-02T12:57:25.274Z,24.90
2022-08-02T13:02:27.784Z,24.70
2022-08-02T13:07:30.317Z,24.20
2022-08-02T13:12:34.699Z,24.10
2022-08-02T13:17:37.629Z,24.30
2022-08-02T13:22:52.878Z,24.70
2022-08-02T13:27:56.128Z,25.30
2022-08-02T13:33:01.102Z,25.70
2022-08-02T13:38:04.543Z,25.70
2022-08-02T13:43:06.979Z,25.70
2022-08-02T13:48:16.623Z,25.80
2022-08-02T13:53:20.890Z,25.10
2022-08-02T13:58:23.368Z,25.70
2022-08-02T14:03:26.485Z,25.60
2022-08-02T14:08:49.012Z,25.20
2022-08-02T14:13:51.556Z,24.80
2022-08-02T14:18:53.993Z,25.00
2022-08-02T14:23:56.401Z,25.00
2022-08-02T14:28:59.094Z,25.30
2022-08-02T14:34:01.598Z,25.10
2022-08-02T14:39:04.419Z,24.70
2022-08-02T14:44:08.107Z,25.10
2022-08-02T14:49:11.266Z,25.10
2022-08-02T14:54:17.128Z,24.90
2022-08-02T14:59:20.786Z,25.30
2022-08-02T15:04:23.284Z,25.10
2022-08-02T15:09:26.304Z,25.30
2022-08-02T15:14:28.789Z,25.10
2022-08-02T15:19:59.044Z,25.10
2022-08-02T15:24:54.629Z,24.80
2022-08-02T15:30:00.588Z,24.30
2022-08-02T15:35:03.606Z,24.40
2022-08-02T15:40:06.637Z,24.70
2022-08-02T15:45:13.156Z,25.10
2022-08-02T15:50:18.665Z,25.10
2022-08-02T15:55:21.246Z,24.70
2022-08-02T16:00:23.835Z,24.40
2022-08-02T16:05:26.334Z,24.40
2022-08-02T16:10:28.906Z,24.40
2022-08-02T16:15:31.422Z,24.30
2022-08-02T16:20:33.833Z,24.10
2022-08-02T16:25:41.858Z,24.00
2022-08-02T16:30:59.247Z,24.20
2022-08-02T16:36:07.160Z,24.40
2022-08-02T16:41:10.492Z,24.40
2022-08-02T16:46:13.288Z,24.20
2022-08-02T16:51:15.702Z,24.30
2022-08-02T16:56:18.203Z,24.20
2022-08-02T17:01:27.238Z,23.90
2022-08-02T17:06:30.216Z,24.00
2022-08-02T17:11:32.845Z,24.10
2022-08-02T17:16:35.431Z,24.20
2022-08-02T17:21:38.926Z,24.20
2022-08-02T17:26:41.750Z,24.00
2022-08-02T17:32:05.087Z,23.80
2022-08-02T17:37:09.034Z,23.50
2022-08-02T17:42:15.199Z,23.30
2022-08-02T17:47:22.976Z,23.10
2022-08-02T17:52:51.022Z,22.90
2022-08-02T17:57:58.653Z,22.70
2022-08-02T18:03:05.880Z,22.60
2022-08-02T18:08:10.381Z,22.40
2022-08-02T18:13:16.563Z,22.10
2022-08-02T18:18:29.451Z,22.00
2022-08-02T18:23:32.783Z,22.00
2022-08-02T18:28:40.490Z,21.90
2022-08-02T18:33:58.736Z,21.80
2022-08-02T18:39:07.812Z,21.80
2022-08-02T18:44:11.111Z,21.60
2022-08-02T18:49:18.515Z,21.60
2022-08-02T18:54:26.614Z,21.50
2022-08-02T18:59:37.456Z,21.50
2022-08-02T19:04:43.671Z,21.50
2022-08-02T19:09:49.712Z,21.50
2022-08-02T19:14:52.306Z,21.40
2022-08-02T19:19:56.123Z,21.40
2022-08-02T19:25:01.135Z,21.40
2022-08-02T19:30:07.697Z,21.40
2022-08-02T19:35:19.940Z,21.30
2022-08-02T19:40:32.839Z,21.40
2022-08-02T19:45:49.947Z,21.30
2022-08-02T19:50:56.272Z,21.20
2022-08-02T19:56:03.038Z,21.20
2022-08-02T20:01:07.461Z,21.20
2022-08-02T20:06:17.849Z,21.20
2022-08-02T20:11:22.175Z,21.20
2022-08-02T20:16:28.282Z,21.20
2022-08-02T20:21:38.200Z,21.10
2022-08-02T20:26:47.957Z,21.20
2022-08-02T20:31:51.383Z,21.10
2022-08-02T20:36:54.160Z,21.20
2022-08-02T20:41:57.177Z,21.10
2022-08-02T20:47:01.667Z,21.10
2022-08-02T20:52:04.815Z,21.10
2022-08-02T20:57:49.186Z,21.10
2022-08-02T21:02:49.440Z,21.10
2022-08-02T21:07:53.568Z,21.00
2022-08-02T21:12:57.637Z,21.00
2022-08-02T21:18:19.307Z,21.10
2022-08-02T21:23:23.449Z,21.00
2022-08-02T21:28:35.110Z,21.00
2022-08-02T21:33:57.391Z,21.10
2022-08-02T21:39:05.415Z,21.10
2022-08-02T21:44:09.010Z,21.10
2022-08-02T21:49:12.508Z,21.10
2022-08-02T21:54:18.982Z,21.10
2022-08-02T21:59:26.156Z,21.10
2022-08-02T22:04:29.626Z,21.10
2022-08-02T22:09:42.525Z,21.10
2022-08-02T22:20:18.374Z,21.10
2022-08-02T22:25:36.115Z,21.10
2022-08-02T22:30:41.130Z,21.10
2022-08-02T22:35:43.627Z,21.00
2022-08-02T22:40:48.498Z,21.00
2022-08-02T22:45:51.328Z,21.00
2022-08-02T22:50:54.010Z,21.00
2022-08-02T22:55:56.664Z,21.00
2022-08-02T22:59:12.948Z,21.10
2022-08-02T23:01:00.259Z,21.00
2022-08-02T23:06:02.832Z,21.00
2022-08-02T23:11:05.413Z,20.90
2022-08-02T23:16:26.372Z,21.00
2022-08-02T23:22:01.220Z,21.00
2022-08-02T23:26:55.349Z,20.90
2022-08-02T23:31:58.924Z,20.90
2022-08-02T23:37:04.048Z,20.90
2022-08-02T23:42:06.813Z,20.90
2022-08-02T23:47:11.076Z,20.90
2022-08-02T23:52:14.163Z,20.90
2022-08-02T23:57:20.425Z,20.90
